createdAt,value
2017-10-10T00:06:46.000Z,68.553
2017-10-10T00:16:46.000Z,68.541
2017-10-10T00:26:46.000Z,68.516
2017-10-10T00:36:46.000Z,68.568
2017-10-10T00:46:46.000Z,68.481
2017-10-10T00:56:46.000Z,68.416
2017-10-10T01:06:46.000Z,68.393
2017-10-10T01:16:46.000Z,68.391
2017-10-10T01:26:46.000Z,68.335
2017-10-10T01:36:46.000Z,68.345
2017-10-10T01:46:46.000Z,68.322
2017-10-10T01:56:46.000Z,68.19
2017-10-10T02:06:46.000Z,68.274
2017-10-10T02:16:46.000Z,68.273
2017-10-10T02:26:46.000Z,68.208
2017-10-10T02:36:46.000Z,68.249
2017-10-10T02:46:46.000Z,68.183
2017-10-10T02:56:46.000Z,68.151
2017-10-10T03:06:46.000Z,68.053
2017-10-10T03:16:47.000Z,68.053
2017-10-10T03:26:47.000Z,68.05
2017-10-10T03:36:47.000Z,68.038
2017-10-10T03:46:47.000Z,68.037
2017-10-10T03:56:47.000Z,68.035
2017-10-10T04:06:47.000Z,67.959
2017-10-10T04:16:47.000Z,67.979
2017-10-10T04:26:47.000Z,67.967
2017-10-10T04:36:47.000Z,67.905
2017-10-10T04:46:47.000Z,67.881
2017-10-10T04:56:47.000Z,67.86
2017-10-10T05:06:47.000Z,67.786
2017-10-10T05:16:47.000Z,67.868
2017-10-10T05:26:47.000Z,67.773
2017-10-10T05:36:47.000Z,67.862
2017-10-10T05:46:47.000Z,67.868
2017-10-10T05:56:47.000Z,67.547
2017-10-10T06:06:47.000Z,67.447
2017-10-10T06:16:47.000Z,67.553
2017-10-10T06:26:47.000Z,67.5
2017-10-10T06:36:47.000Z,67.532
2017-10-10T06:46:47.000Z,67.459
2017-10-10T06:56:47.000Z,67.51
2017-10-10T07:06:47.000Z,67.481
2017-10-10T07:16:47.000Z,67.344
2017-10-10T07:26:47.000Z,67.375
2017-10-10T07:36:47.000Z,67.26
2017-10-10T07:46:47.000Z,67.187
2017-10-10T07:56:47.000Z,66.963
2017-10-10T08:06:47.000Z,66.911
2017-10-10T08:16:47.000Z,66.733
2017-10-10T08:26:47.000Z,66.7
2017-10-10T08:36:47.000Z,66.615
2017-10-10T08:46:47.000Z,66.518
2017-10-10T08:56:47.000Z,66.498
2017-10-10T09:06:47.000Z,66.386
2017-10-10T09:16:47.000Z,66.169
2017-10-10T09:26:47.000Z,65.96
2017-10-10T09:36:47.000Z,65.858
2017-10-10T09:46:47.000Z,65.73
2017-10-10T09:56:47.000Z,65.712
2017-10-10T10:06:47.000Z,65.756
2017-10-10T10:16:47.000Z,65.432
2017-10-10T10:26:47.000Z,64.773
2017-10-10T10:36:47.000Z,64.417
2017-10-10T10:46:47.000Z,64.661
2017-10-10T10:56:49.000Z,64.683
2017-10-10T11:06:47.000Z,64.707
2017-10-10T11:16:47.000Z,64.55
2017-10-10T11:26:47.000Z,64.332
2017-10-10T11:36:47.000Z,64.621
2017-10-10T11:46:47.000Z,64.582
2017-10-10T11:56:47.000Z,64.572
2017-10-10T12:06:48.000Z,64.458
2017-10-10T12:16:48.000Z,64.258
2017-10-10T12:26:48.000Z,64.45
2017-10-10T12:36:48.000Z,64.501
2017-10-10T12:46:48.000Z,64.641
2017-10-10T12:56:48.000Z,64.165
2017-10-10T13:06:48.000Z,64.331
2017-10-10T13:16:48.000Z,64.309
2017-10-10T13:26:48.000Z,64.341
2017-10-10T13:36:48.000Z,64.393
2017-10-10T13:56:48.000Z,64.685
2017-10-10T14:06:48.000Z,64.855
2017-10-10T14:16:48.000Z,65.073
2017-10-10T14:26:48.000Z,65.06
2017-10-10T14:36:48.000Z,65.078
2017-10-10T14:46:48.000Z,65.321
2017-10-10T14:56:49.000Z,65.391
2017-10-10T15:06:48.000Z,65.456
2017-10-10T15:16:48.000Z,65.451
2017-10-10T15:26:48.000Z,65.513
2017-10-10T15:36:48.000Z,65.555
2017-10-10T15:46:48.000Z,65.562
2017-10-10T15:56:48.000Z,65.625
2017-10-10T16:06:51.000Z,65.561
2017-10-10T16:16:48.000Z,65.581
2017-10-10T16:26:48.000Z,65.58
2017-10-10T16:36:49.000Z,65.622
2017-10-10T16:46:48.000Z,65.619
2017-10-10T16:56:48.000Z,65.682
2017-10-10T17:06:48.000Z,65.712
2017-10-10T17:16:48.000Z,65.702
2017-10-10T17:26:48.000Z,65.743
2017-10-10T17:36:48.000Z,65.688
2017-10-10T17:46:48.000Z,65.709
2017-10-10T17:56:48.000Z,65.731
2017-10-10T18:06:48.000Z,65.677
2017-10-10T18:16:48.000Z,65.716
2017-10-10T18:26:48.000Z,65.654
2017-10-10T18:36:48.000Z,65.601
2017-10-10T18:46:48.000Z,65.714
2017-10-10T18:56:48.000Z,65.651
2017-10-10T19:06:48.000Z,65.608
2017-10-10T19:16:48.000Z,65.639
2017-10-10T19:26:48.000Z,65.637
2017-10-10T19:36:48.000Z,65.648
2017-10-10T19:46:48.000Z,65.636
2017-10-10T19:56:48.000Z,65.626
2017-10-10T20:06:48.000Z,65.647
2017-10-10T20:16:48.000Z,65.552
2017-10-10T20:26:48.000Z,65.594
2017-10-10T20:36:49.000Z,65.541
2017-10-10T20:46:49.000Z,65.561
2017-10-10T20:56:49.000Z,65.561
2017-10-10T21:06:49.000Z,65.56
2017-10-10T21:16:49.000Z,65.497
2017-10-10T21:26:49.000Z,65.463
2017-10-10T21:36:49.000Z,65.516
2017-10-10T21:46:49.000Z,65.453
2017-10-10T21:56:49.000Z,65.453
2017-10-10T22:06:49.000Z,65.431
2017-10-10T22:16:49.000Z,65.462
2017-10-10T22:26:49.000Z,65.429
2017-10-10T22:36:49.000Z,65.46
2017-10-10T22:46:49.000Z,65.47
2017-10-10T22:56:49.000Z,65.396
2017-10-10T23:06:49.000Z,65.383
2017-10-10T23:16:49.000Z,65.416
2017-10-10T23:26:49.000Z,65.33
2017-10-10T23:36:49.000Z,65.307
2017-10-10T23:46:49.000Z,65.391
2017-10-10T23:56:49.000Z,65.328
